Time;durP1;ratioP1;P1;durP2;ratioP2;P2;SDS_P1;SDS_P2;PMS_P1;PMS_P2;Temp;Humidity;BMP_temperature;BMP_pressure;BME280_temperature;BME280_humidity;BME280_pressure;Samples;Min_cycle;Max_cycle;Signal;HPM_P1;HPM_P2
2023/12/09 00:01:03;;;;;;;;;;;5.70;99.90;;;;;;5112449;27;20538;-68
2023/12/09 00:03:29;;;;;;;;;;;5.70;99.90;;;;;;5109914;27;19918;-69
2023/12/09 00:05:54;;;;;;;;;;;5.70;99.90;;;;;;5110696;27;20010;-68
2023/12/09 00:08:20;;;;;;;;;;;5.70;99.90;;;;;;5111440;27;19908;-69
2023/12/09 00:10:45;;;;;;;;;;;5.70;99.90;;;;;;5114710;27;19999;-69
2023/12/09 00:13:11;;;;;;;;;;;5.70;99.90;;;;;;5106747;28;19916;-68
2023/12/09 00:15:37;;;;;;;;;;;5.70;99.90;;;;;;5105995;28;20400;-69
2023/12/09 00:18:02;;;;;;;;;;;5.70;99.90;;;;;;5106687;28;19985;-69
2023/12/09 00:20:28;;;;;;;;;;;5.70;99.90;;;;;;5106344;27;19912;-68
2023/12/09 00:22:54;;;;;;;;;;;5.70;99.90;;;;;;5110592;27;19911;-68
2023/12/09 00:25:19;;;;;;;;;;;5.70;99.90;;;;;;5110784;27;19912;-69
2023/12/09 00:27:45;;;;;;;;;;;5.70;99.90;;;;;;5106148;27;19916;-68
2023/12/09 00:30:11;;;;;;;;;;;5.70;99.90;;;;;;5107663;27;20022;-69
2023/12/09 00:32:36;;;;;;;;;;;5.70;99.90;;;;;;5116703;27;20261;-68
2023/12/09 00:35:02;;;;;;;;;;;5.70;99.90;;;;;;5104867;28;19950;-68
2023/12/09 00:37:27;;;;;;;;;;;5.80;99.90;;;;;;5106327;28;20356;-69
2023/12/09 00:39:53;;;;;;;;;;;5.70;99.90;;;;;;5110478;27;19919;-69
2023/12/09 00:42:18;;;;;;;;;;;5.70;99.90;;;;;;5111358;27;19957;-68
2023/12/09 00:44:44;;;;;;;;;;;5.70;99.90;;;;;;5106151;28;19938;-68
2023/12/09 00:47:09;;;;;;;;;;;5.70;99.90;;;;;;5106250;28;19919;-69
2023/12/09 00:49:35;;;;;;;;;;;5.70;99.90;;;;;;5114381;27;19922;-68
2023/12/09 00:52:00;;;;;;;;;;;5.80;99.90;;;;;;5106122;28;20496;-68
2023/12/09 00:54:26;;;;;;;;;;;5.80;99.90;;;;;;5114443;27;20586;-68
2023/12/09 00:56:51;;;;;;;;;;;5.70;99.90;;;;;;5112969;27;19920;-68
2023/12/09 00:59:17;;;;;;;;;;;5.80;99.90;;;;;;5105532;28;19931;-68
2023/12/09 01:01:42;;;;;;;;;;;5.80;99.90;;;;;;5105751;28;19920;-68
2023/12/09 01:04:08;;;;;;;;;;;5.70;99.90;;;;;;5106102;28;20006;-68
2023/12/09 01:06:33;;;;;;;;;;;5.80;99.90;;;;;;5104072;28;20061;-68
2023/12/09 01:08:59;;;;;;;;;;;5.80;99.90;;;;;;5110655;27;19916;-68
2023/12/09 01:11:24;;;;;;;;;;;5.80;99.90;;;;;;5117959;27;19915;-68
2023/12/09 01:13:50;;;;;;;;;;;5.80;99.90;;;;;;5110681;27;19916;-69
2023/12/09 01:16:15;;;;;;;;;;;5.80;99.90;;;;;;5119083;27;19919;-68
2023/12/09 01:18:41;;;;;;;;;;;5.70;99.90;;;;;;5124286;27;19913;-68
2023/12/09 01:21:07;;;;;;;;;;;5.80;99.90;;;;;;5111825;27;20316;-68
2023/12/09 01:23:32;;;;;;;;;;;5.80;99.90;;;;;;5105088;28;19912;-69
2023/12/09 01:25:58;;;;;;;;;;;5.70;99.90;;;;;;5105075;28;19912;-68
2023/12/09 01:28:23;;;;;;;;;;;5.70;99.90;;;;;;5105167;28;19912;-68
2023/12/09 01:30:49;;;;;;;;;;;5.80;99.90;;;;;;5104648;28;19916;-68
2023/12/09 01:33:14;;;;;;;;;;;5.80;99.90;;;;;;5105483;28;19915;-68
2023/12/09 01:35:40;;;;;;;;;;;5.80;99.90;;;;;;5104759;27;19937;-68
2023/12/09 01:38:06;;;;;;;;;;;5.80;99.90;;;;;;5105545;28;19965;-69
2023/12/09 01:40:32;;;;;;;;;;;5.70;99.90;;;;;;5104912;28;20104;-68
2023/12/09 01:42:57;;;;;;;;;;;5.70;99.90;;;;;;5105210;28;20030;-68
2023/12/09 01:45:23;;;;;;;;;;;5.80;99.90;;;;;;5104494;27;20630;-68
2023/12/09 01:47:48;;;;;;;;;;;5.70;99.90;;;;;;5105146;28;20364;-68
2023/12/09 01:50:14;;;;;;;;;;;5.70;99.90;;;;;;5105096;28;20572;-68
2023/12/09 01:52:40;;;;;;;;;;;5.70;99.90;;;;;;5104653;28;19923;-68
2023/12/09 01:55:06;;;;;;;;;;;5.70;99.90;;;;;;5104793;28;20297;-69
2023/12/09 01:57:32;;;;;;;;;;;5.70;99.90;;;;;;5104798;28;19936;-69
2023/12/09 01:59:57;;;;;;;;;;;5.70;99.90;;;;;;5103176;28;19981;-68
2023/12/09 02:02:23;;;;;;;;;;;5.70;99.90;;;;;;5105279;28;19919;-68
2023/12/09 02:04:49;;;;;;;;;;;5.70;99.90;;;;;;5104655;28;20661;-68
2023/12/09 02:07:14;;;;;;;;;;;5.70;99.90;;;;;;5105236;28;19977;-68
2023/12/09 02:09:40;;;;;;;;;;;5.70;99.90;;;;;;5112964;28;19912;-68
2023/12/09 02:12:10;;;;;;;;;;;5.70;99.90;;;;;;5120639;27;20575;-68
2023/12/09 02:14:47;;;;;;;;;;;5.70;99.90;;;;;;5108753;27;19960;-68
2023/12/09 02:17:15;;;;;;;;;;;5.70;99.90;;;;;;5109395;28;20653;-68
2023/12/09 02:19:41;;;;;;;;;;;5.70;99.90;;;;;;5109098;28;20040;-68
2023/12/09 02:22:09;;;;;;;;;;;5.70;99.90;;;;;;5107780;28;19928;-68
2023/12/09 02:24:34;;;;;;;;;;;5.70;99.90;;;;;;5108739;27;19943;-68
2023/12/09 02:27:21;;;;;;;;;;;5.70;99.90;;;;;;5107403;28;20269;-68
2023/12/09 02:29:52;;;;;;;;;;;5.70;99.90;;;;;;5109067;27;19920;-68
2023/12/09 02:32:20;;;;;;;;;;;5.70;99.90;;;;;;5110290;27;19922;-68
2023/12/09 02:34:46;;;;;;;;;;;5.70;99.90;;;;;;5125315;27;20396;-69
2023/12/09 02:37:12;;;;;;;;;;;5.70;99.90;;;;;;5123574;27;19915;-68
2023/12/09 02:39:38;;;;;;;;;;;5.70;99.90;;;;;;5110800;27;19912;-69
2023/12/09 02:42:04;;;;;;;;;;;5.80;99.90;;;;;;5109047;28;19961;-68
2023/12/09 02:44:30;;;;;;;;;;;5.70;99.90;;;;;;5108234;28;20392;-68
2023/12/09 02:46:56;;;;;;;;;;;5.80;99.90;;;;;;5108925;28;19958;-68
2023/12/09 02:49:21;;;;;;;;;;;5.80;99.90;;;;;;5108717;27;19985;-69
2023/12/09 02:51:47;;;;;;;;;;;5.80;99.90;;;;;;5108781;27;20763;-68
2023/12/09 02:54:13;;;;;;;;;;;5.70;99.90;;;;;;5108252;28;19920;-68
2023/12/09 02:56:38;;;;;;;;;;;5.70;99.90;;;;;;5116359;27;19936;-69
2023/12/09 02:59:03;;;;;;;;;;;5.80;99.90;;;;;;5112168;27;19917;-68
2023/12/09 03:01:29;;;;;;;;;;;5.80;99.90;;;;;;5125387;27;20030;-69
2023/12/09 03:03:54;;;;;;;;;;;5.80;99.90;;;;;;5116677;27;19912;-69
2023/12/09 03:06:20;;;;;;;;;;;5.80;99.90;;;;;;5108248;28;19973;-68
2023/12/09 03:08:45;;;;;;;;;;;5.70;99.90;;;;;;5108005;27;19998;-69
2023/12/09 03:11:11;;;;;;;;;;;5.70;99.90;;;;;;5108360;28;20000;-68
2023/12/09 03:13:36;;;;;;;;;;;5.70;99.90;;;;;;5107639;28;19916;-68
2023/12/09 03:16:02;;;;;;;;;;;5.70;99.90;;;;;;5121265;27;19954;-69
2023/12/09 03:18:28;;;;;;;;;;;5.70;99.90;;;;;;5128770;27;19969;-68
2023/12/09 03:20:53;;;;;;;;;;;5.70;99.90;;;;;;5103193;27;19907;-68
2023/12/09 03:23:18;;;;;;;;;;;5.70;99.90;;;;;;5128431;27;19918;-68
2023/12/09 03:25:44;;;;;;;;;;;5.60;99.90;;;;;;5127903;27;19915;-69
2023/12/09 03:28:09;;;;;;;;;;;5.60;99.90;;;;;;5114164;27;20577;-68
2023/12/09 03:30:35;;;;;;;;;;;5.70;99.90;;;;;;5106697;28;19916;-68
2023/12/09 03:33:00;;;;;;;;;;;5.70;99.90;;;;;;5106246;28;19947;-68
2023/12/09 03:35:26;;;;;;;;;;;5.60;99.90;;;;;;5107484;28;20007;-68
2023/12/09 03:37:52;;;;;;;;;;;5.60;99.90;;;;;;5107585;27;20348;-68
2023/12/09 03:40:17;;;;;;;;;;;5.60;99.90;;;;;;5113278;27;19922;-68
2023/12/09 03:42:42;;;;;;;;;;;5.60;99.90;;;;;;5126459;27;19911;-68
2023/12/09 03:45:08;;;;;;;;;;;5.60;99.90;;;;;;5102705;27;20002;-68
2023/12/09 03:47:34;;;;;;;;;;;5.50;99.90;;;;;;5107290;28;19958;-69
2023/12/09 03:49:59;;;;;;;;;;;5.60;99.90;;;;;;5107322;27;19964;-68
2023/12/09 03:52:25;;;;;;;;;;;5.60;99.90;;;;;;5107102;28;20435;-68
2023/12/09 03:54:50;;;;;;;;;;;5.50;99.90;;;;;;5107310;28;19918;-68
2023/12/09 03:57:16;;;;;;;;;;;5.50;99.90;;;;;;5107234;28;19934;-68
2023/12/09 03:59:41;;;;;;;;;;;5.50;99.90;;;;;;5106511;28;19916;-69
2023/12/09 04:02:07;;;;;;;;;;;5.50;99.90;;;;;;5107254;28;19912;-68
2023/12/09 04:04:32;;;;;;;;;;;5.50;99.90;;;;;;5106970;27;19912;-68
2023/12/09 04:06:58;;;;;;;;;;;5.50;99.90;;;;;;5106985;28;19908;-68
2023/12/09 04:09:24;;;;;;;;;;;5.40;99.90;;;;;;5115378;27;20369;-68
2023/12/09 04:11:49;;;;;;;;;;;5.50;99.90;;;;;;5106738;28;19915;-68
2023/12/09 04:14:15;;;;;;;;;;;5.50;99.90;;;;;;5106817;28;19943;-68
2023/12/09 04:16:43;;;;;;;;;;;5.50;99.90;;;;;;5106542;28;20044;-68
2023/12/09 04:19:08;;;;;;;;;;;5.50;99.90;;;;;;5112318;27;19915;-68
2023/12/09 04:21:34;;;;;;;;;;;5.40;99.90;;;;;;5109556;27;20281;-68
2023/12/09 04:24:00;;;;;;;;;;;5.40;99.90;;;;;;5106543;28;19912;-69
2023/12/09 04:26:25;;;;;;;;;;;5.40;99.90;;;;;;5113956;27;19911;-68
2023/12/09 04:28:51;;;;;;;;;;;5.40;99.90;;;;;;5106231;27;20502;-69
2023/12/09 04:31:16;;;;;;;;;;;5.40;99.90;;;;;;5105936;28;19912;-68
2023/12/09 04:33:44;;;;;;;;;;;5.40;99.90;;;;;;5114038;27;19916;-68
2023/12/09 04:36:10;;;;;;;;;;;5.40;99.90;;;;;;5111345;27;19998;-69
2023/12/09 04:38:36;;;;;;;;;;;5.40;99.90;;;;;;5116763;27;20665;-69
2023/12/09 04:41:01;;;;;;;;;;;5.40;99.90;;;;;;5126817;27;19915;-68
2023/12/09 04:43:27;;;;;;;;;;;5.30;99.90;;;;;;5116114;27;19923;-68
2023/12/09 04:45:52;;;;;;;;;;;5.30;99.90;;;;;;5105555;28;19912;-68
2023/12/09 04:48:18;;;;;;;;;;;5.30;99.90;;;;;;5104713;28;20324;-68
2023/12/09 04:50:44;;;;;;;;;;;5.30;99.90;;;;;;5105738;28;20486;-69
2023/12/09 04:53:09;;;;;;;;;;;5.30;99.90;;;;;;5106125;28;20002;-68
2023/12/09 04:55:35;;;;;;;;;;;5.30;99.90;;;;;;5105607;28;20411;-68
2023/12/09 04:58:00;;;;;;;;;;;5.30;99.90;;;;;;5106212;27;20787;-68
2023/12/09 05:00:26;;;;;;;;;;;5.30;99.90;;;;;;5113659;27;20458;-68
2023/12/09 05:02:52;;;;;;;;;;;5.30;99.90;;;;;;5114817;27;20376;-68
2023/12/09 05:05:18;;;;;;;;;;;5.30;99.90;;;;;;5112497;27;19984;-69
2023/12/09 05:07:44;;;;;;;;;;;5.30;99.90;;;;;;5124572;27;19908;-68
2023/12/09 05:10:12;;;;;;;;;;;5.30;99.90;;;;;;5112167;27;20402;-68
2023/12/09 05:12:40;;;;;;;;;;;5.30;99.90;;;;;;5105637;27;20020;-68
2023/12/09 05:15:06;;;;;;;;;;;5.20;99.90;;;;;;5105501;28;19919;-68
2023/12/09 05:17:32;;;;;;;;;;;5.20;99.90;;;;;;5105426;28;19911;-69
2023/12/09 05:19:57;;;;;;;;;;;5.20;99.90;;;;;;5105397;28;19919;-68
2023/12/09 05:22:23;;;;;;;;;;;5.20;99.90;;;;;;5105629;28;19964;-69
2023/12/09 05:24:49;;;;;;;;;;;5.20;99.90;;;;;;5113756;27;20472;-68
2023/12/09 05:27:14;;;;;;;;;;;5.20;99.90;;;;;;5113846;27;20304;-69
2023/12/09 05:29:40;;;;;;;;;;;5.20;99.90;;;;;;5105973;28;20393;-68
2023/12/09 05:32:05;;;;;;;;;;;5.20;99.90;;;;;;5121067;27;20004;-68
2023/12/09 05:34:31;;;;;;;;;;;5.20;99.90;;;;;;5104644;28;19996;-69
2023/12/09 05:36:56;;;;;;;;;;;5.20;99.90;;;;;;5104953;28;19912;-68
2023/12/09 05:39:22;;;;;;;;;;;5.20;99.90;;;;;;5105066;28;19911;-69
2023/12/09 05:41:47;;;;;;;;;;;5.20;99.90;;;;;;5113498;27;20473;-68
2023/12/09 05:44:13;;;;;;;;;;;5.20;99.90;;;;;;5104884;28;20019;-69
2023/12/09 05:46:40;;;;;;;;;;;5.20;99.90;;;;;;5112280;27;19947;-68
2023/12/09 05:49:05;;;;;;;;;;;5.10;99.90;;;;;;5109627;27;20051;-68
2023/12/09 05:51:31;;;;;;;;;;;5.10;99.90;;;;;;5116043;27;20011;-68
2023/12/09 05:53:56;;;;;;;;;;;5.10;99.90;;;;;;5113292;27;19995;-69
2023/12/09 05:56:22;;;;;;;;;;;5.10;99.90;;;;;;5113175;27;19912;-69
2023/12/09 05:58:48;;;;;;;;;;;5.10;99.90;;;;;;5104147;28;19912;-68
2023/12/09 06:01:13;;;;;;;;;;;5.10;99.90;;;;;;5104813;28;20566;-68
2023/12/09 06:03:39;;;;;;;;;;;5.10;99.90;;;;;;5103277;27;19966;-68
2023/12/09 06:06:04;;;;;;;;;;;5.10;99.90;;;;;;5104576;28;20351;-69
2023/12/09 06:08:31;;;;;;;;;;;5.10;99.90;;;;;;5105032;28;20442;-68
2023/12/09 06:10:57;;;;;;;;;;;5.10;99.90;;;;;;5104790;27;19918;-68
2023/12/09 06:13:23;;;;;;;;;;;5.10;99.90;;;;;;5113252;28;19931;-68
2023/12/09 06:15:48;;;;;;;;;;;5.10;99.90;;;;;;5104249;28;19950;-68
2023/12/09 06:18:14;;;;;;;;;;;5.10;99.90;;;;;;5104535;28;19916;-69
2023/12/09 06:20:39;;;;;;;;;;;5.10;99.90;;;;;;5104211;28;20768;-68
2023/12/09 06:23:05;;;;;;;;;;;5.10;99.90;;;;;;5104556;28;20603;-68
2023/12/09 06:25:31;;;;;;;;;;;5.10;99.90;;;;;;5102719;28;19920;-69
2023/12/09 06:27:56;;;;;;;;;;;5.00;99.90;;;;;;5107653;27;19915;-68
2023/12/09 06:30:22;;;;;;;;;;;5.00;99.90;;;;;;5103333;28;19947;-68
2023/12/09 06:32:47;;;;;;;;;;;5.10;99.90;;;;;;5104368;28;19923;-68
2023/12/09 06:35:13;;;;;;;;;;;5.00;99.90;;;;;;5112606;27;19966;-68
2023/12/09 06:37:38;;;;;;;;;;;5.00;99.90;;;;;;5112173;27;19994;-68
2023/12/09 06:40:04;;;;;;;;;;;5.00;99.90;;;;;;5124945;27;19911;-68
2023/12/09 06:42:30;;;;;;;;;;;5.00;99.90;;;;;;5124822;27;19918;-68
2023/12/09 06:44:56;;;;;;;;;;;5.00;99.90;;;;;;5112621;27;20002;-69
2023/12/09 06:47:21;;;;;;;;;;;5.00;99.90;;;;;;5109059;27;20010;-68
2023/12/09 06:49:47;;;;;;;;;;;5.00;99.90;;;;;;5103959;28;19919;-68
2023/12/09 06:52:12;;;;;;;;;;;5.00;99.90;;;;;;5104399;28;19938;-68
2023/12/09 06:54:38;;;;;;;;;;;5.00;99.90;;;;;;5104056;28;19919;-69
2023/12/09 06:57:04;;;;;;;;;;;5.00;99.90;;;;;;5104099;28;19912;-69
2023/12/09 06:59:29;;;;;;;;;;;5.00;99.90;;;;;;5109973;27;19965;-68
2023/12/09 07:01:55;;;;;;;;;;;5.00;99.90;;;;;;5116230;27;19912;-69
2023/12/09 07:04:21;;;;;;;;;;;5.00;99.90;;;;;;5114938;27;19922;-68
2023/12/09 07:06:46;;;;;;;;;;;5.00;99.90;;;;;;5116417;27;19911;-69
2023/12/09 07:09:12;;;;;;;;;;;5.00;99.90;;;;;;5108189;27;19911;-68
2023/12/09 07:11:38;;;;;;;;;;;5.00;99.90;;;;;;5107713;28;20346;-69
2023/12/09 07:14:03;;;;;;;;;;;5.00;99.90;;;;;;5107310;28;19916;-68
2023/12/09 07:16:29;;;;;;;;;;;5.00;99.90;;;;;;5107561;28;19915;-68
2023/12/09 07:18:59;;;;;;;;;;;5.00;99.90;;;;;;5105775;28;20391;-68
2023/12/09 07:21:26;;;;;;;;;;;5.00;99.90;;;;;;5107945;28;20257;-69
2023/12/09 07:23:51;;;;;;;;;;;5.00;99.90;;;;;;5115758;27;19911;-69
2023/12/09 07:26:18;;;;;;;;;;;5.00;99.90;;;;;;5106510;28;20280;-68
2023/12/09 07:28:44;;;;;;;;;;;5.00;99.90;;;;;;5107056;28;19976;-68
2023/12/09 07:31:10;;;;;;;;;;;5.00;99.90;;;;;;5107155;27;20026;-68
2023/12/09 07:33:36;;;;;;;;;;;5.00;99.90;;;;;;5107072;28;20014;-68
2023/12/09 07:36:01;;;;;;;;;;;5.00;99.90;;;;;;5106525;28;19997;-68
2023/12/09 07:38:27;;;;;;;;;;;5.00;99.90;;;;;;5107591;27;20080;-68
2023/12/09 07:40:52;;;;;;;;;;;5.00;99.90;;;;;;5107156;28;19923;-68
2023/12/09 07:43:18;;;;;;;;;;;5.00;99.90;;;;;;5107225;28;19919;-69
2023/12/09 07:45:43;;;;;;;;;;;5.00;99.90;;;;;;5106795;28;20588;-68
2023/12/09 07:48:09;;;;;;;;;;;5.00;99.90;;;;;;5112354;27;19911;-68
2023/12/09 07:50:35;;;;;;;;;;;5.10;99.90;;;;;;5126827;27;19911;-68
2023/12/09 07:53:01;;;;;;;;;;;5.00;99.90;;;;;;5119552;27;19939;-69
2023/12/09 07:55:26;;;;;;;;;;;5.10;99.90;;;;;;5119372;27;20230;-68
2023/12/09 07:57:52;;;;;;;;;;;5.10;99.90;;;;;;5117914;27;19995;-68
2023/12/09 08:00:17;;;;;;;;;;;5.10;99.90;;;;;;5110901;27;20401;-69
2023/12/09 08:02:43;;;;;;;;;;;5.10;99.90;;;;;;5106787;28;20002;-69
2023/12/09 08:05:09;;;;;;;;;;;5.10;99.90;;;;;;5111567;27;19919;-69
2023/12/09 08:07:34;;;;;;;;;;;5.10;99.90;;;;;;5109106;27;20035;-69
2023/12/09 08:10:00;;;;;;;;;;;5.10;99.90;;;;;;5104784;28;19947;-68
2023/12/09 08:12:26;;;;;;;;;;;5.10;99.90;;;;;;5105539;28;19916;-68
2023/12/09 08:14:52;;;;;;;;;;;5.10;99.90;;;;;;5103970;27;19918;-68
2023/12/09 08:17:17;;;;;;;;;;;5.10;99.90;;;;;;5125850;27;20435;-68
2023/12/09 08:19:42;;;;;;;;;;;5.10;99.90;;;;;;5115555;27;19941;-68
2023/12/09 08:22:08;;;;;;;;;;;5.10;99.90;;;;;;5106096;28;19908;-68
2023/12/09 08:24:33;;;;;;;;;;;5.20;99.90;;;;;;5114625;27;19908;-69
2023/12/09 08:26:59;;;;;;;;;;;5.20;99.90;;;;;;5106116;28;19911;-68
2023/12/09 08:29:25;;;;;;;;;;;5.20;99.90;;;;;;5105669;28;20010;-68
2023/12/09 08:31:50;;;;;;;;;;;5.20;99.90;;;;;;5104956;28;20290;-69
2023/12/09 08:34:16;;;;;;;;;;;5.20;99.90;;;;;;5105900;28;19916;-68
2023/12/09 08:36:42;;;;;;;;;;;5.20;99.90;;;;;;5110474;27;19912;-68
2023/12/09 08:39:10;;;;;;;;;;;5.20;99.90;;;;;;5118106;27;19918;-69
2023/12/09 08:41:36;;;;;;;;;;;5.20;99.90;;;;;;5124834;27;19907;-68
2023/12/09 08:44:03;;;;;;;;;;;5.20;99.90;;;;;;5106601;27;19918;-68
2023/12/09 08:46:29;;;;;;;;;;;5.20;99.90;;;;;;5117933;27;19911;-68
2023/12/09 08:48:54;;;;;;;;;;;5.20;99.90;;;;;;5104488;27;20019;-69
2023/12/09 08:51:20;;;;;;;;;;;5.30;99.90;;;;;;5104491;28;19911;-68
2023/12/09 08:53:45;;;;;;;;;;;5.20;99.90;;;;;;5114028;27;19927;-69
2023/12/09 08:56:11;;;;;;;;;;;5.30;99.90;;;;;;5105590;28;19911;-68
2023/12/09 08:58:36;;;;;;;;;;;5.30;99.90;;;;;;5105219;28;19916;-68
2023/12/09 09:01:02;;;;;;;;;;;5.30;99.90;;;;;;5109926;27;20386;-68
2023/12/09 09:03:28;;;;;;;;;;;5.30;99.90;;;;;;5126441;27;19937;-69
2023/12/09 09:05:53;;;;;;;;;;;5.30;99.90;;;;;;5105843;27;19915;-68
2023/12/09 09:08:19;;;;;;;;;;;5.30;99.90;;;;;;5112161;27;20007;-69
2023/12/09 09:10:44;;;;;;;;;;;5.40;99.90;;;;;;5109760;27;19947;-69
2023/12/09 09:13:10;;;;;;;;;;;5.40;99.90;;;;;;5102754;28;19916;-69
2023/12/09 09:15:36;;;;;;;;;;;5.40;99.90;;;;;;5118800;27;19911;-69
2023/12/09 09:18:02;;;;;;;;;;;5.40;99.90;;;;;;5114082;27;19916;-69
2023/12/09 09:20:27;;;;;;;;;;;5.40;99.90;;;;;;5113577;27;19911;-68
2023/12/09 09:22:53;;;;;;;;;;;5.40;99.90;;;;;;5107411;27;19912;-69
2023/12/09 09:25:18;;;;;;;;;;;5.50;99.90;;;;;;5125265;27;19912;-68
2023/12/09 09:27:44;;;;;;;;;;;5.50;99.90;;;;;;5125333;27;19911;-69
2023/12/09 09:30:09;;;;;;;;;;;5.50;99.90;;;;;;5108888;27;19924;-68
2023/12/09 09:32:35;;;;;;;;;;;5.50;99.90;;;;;;5104847;28;19915;-69
2023/12/09 09:35:00;;;;;;;;;;;5.50;99.90;;;;;;5113130;27;19991;-68
2023/12/09 09:37:26;;;;;;;;;;;5.60;99.90;;;;;;5113165;27;19912;-68
2023/12/09 09:39:52;;;;;;;;;;;5.50;99.90;;;;;;5113002;27;20599;-69
2023/12/09 09:42:33;;;;;;;;;;;5.60;99.90;;;;;;5104916;28;20578;-68
2023/12/09 09:45:05;;;;;;;;;;;5.60;99.90;;;;;;5112870;27;19947;-68
2023/12/09 09:47:32;;;;;;;;;;;5.70;99.90;;;;;;5098100;28;20376;-68
2023/12/09 09:49:59;;;;;;;;;;;5.70;99.90;;;;;;5097730;27;19925;-69
2023/12/09 09:52:25;;;;;;;;;;;5.80;99.90;;;;;;5095678;28;19963;-69
2023/12/09 09:54:51;;;;;;;;;;;5.80;99.90;;;;;;5120632;27;20640;-69
2023/12/09 09:57:19;;;;;;;;;;;5.80;99.90;;;;;;5118349;27;19911;-68
2023/12/09 09:59:44;;;;;;;;;;;5.80;99.90;;;;;;5112594;27;20344;-68
2023/12/09 10:02:12;;;;;;;;;;;5.90;99.90;;;;;;5111900;27;19912;-68
2023/12/09 10:04:37;;;;;;;;;;;5.90;99.90;;;;;;5100578;28;19919;-68
2023/12/09 10:07:03;;;;;;;;;;;5.90;99.90;;;;;;5099128;28;19911;-68
2023/12/09 10:09:28;;;;;;;;;;;5.90;99.90;;;;;;5099640;27;19908;-68
2023/12/09 10:11:54;;;;;;;;;;;5.90;99.90;;;;;;5083953;28;19967;-68
2023/12/09 10:14:19;;;;;;;;;;;5.90;99.90;;;;;;5095673;27;19937;-68
2023/12/09 10:16:45;;;;;;;;;;;5.90;99.90;;;;;;5120962;27;19927;-68
2023/12/09 10:19:14;;;;;;;;;;;6.00;99.90;;;;;;5116643;27;19907;-68
2023/12/09 10:21:39;;;;;;;;;;;6.00;99.90;;;;;;5114153;27;20312;-69
2023/12/09 10:24:05;;;;;;;;;;;6.00;99.90;;;;;;5117887;28;19908;-69
2023/12/09 10:26:30;;;;;;;;;;;6.00;99.90;;;;;;5119386;27;19911;-69
2023/12/09 10:28:56;;;;;;;;;;;6.00;99.90;;;;;;5103049;27;19926;-69
2023/12/09 10:31:22;;;;;;;;;;;6.00;99.90;;;;;;5103441;28;20007;-69
2023/12/09 10:33:49;;;;;;;;;;;6.10;99.90;;;;;;5114749;27;20014;-69
2023/12/09 10:36:14;;;;;;;;;;;6.00;99.90;;;;;;5111247;27;20660;-68
2023/12/09 10:38:43;;;;;;;;;;;6.10;99.90;;;;;;5124784;27;19911;-69
2023/12/09 10:41:11;;;;;;;;;;;6.10;99.90;;;;;;5110948;27;19938;-69
2023/12/09 10:43:37;;;;;;;;;;;6.10;99.90;;;;;;5115217;27;20027;-68
2023/12/09 10:46:02;;;;;;;;;;;6.10;99.90;;;;;;5124094;27;19947;-68
2023/12/09 10:48:28;;;;;;;;;;;6.20;99.90;;;;;;5116346;27;19946;-68
2023/12/09 10:50:54;;;;;;;;;;;6.20;99.90;;;;;;5107452;27;19919;-68
2023/12/09 10:53:19;;;;;;;;;;;6.20;99.90;;;;;;5107547;28;19965;-68
2023/12/09 10:55:46;;;;;;;;;;;6.20;99.90;;;;;;5115390;27;19911;-68
2023/12/09 10:58:12;;;;;;;;;;;6.20;99.90;;;;;;5107455;28;19916;-68
2023/12/09 11:00:37;;;;;;;;;;;6.30;99.90;;;;;;5107099;28;19944;-68
2023/12/09 11:03:04;;;;;;;;;;;6.30;99.90;;;;;;5119828;27;19911;-68
2023/12/09 11:05:31;;;;;;;;;;;6.30;99.90;;;;;;5118978;27;20048;-68
2023/12/09 11:07:58;;;;;;;;;;;6.30;99.90;;;;;;5119008;27;19919;-69
2023/12/09 11:10:24;;;;;;;;;;;6.30;99.90;;;;;;5127640;27;19915;-68
2023/12/09 11:12:49;;;;;;;;;;;6.30;99.90;;;;;;5117241;27;19916;-68
2023/12/09 11:15:18;;;;;;;;;;;6.40;99.90;;;;;;5106030;27;19998;-68
2023/12/09 11:17:44;;;;;;;;;;;6.40;99.90;;;;;;5116336;27;20700;-69
2023/12/09 11:20:13;;;;;;;;;;;6.40;99.90;;;;;;5114208;27;19995;-68
2023/12/09 11:22:40;;;;;;;;;;;6.40;99.90;;;;;;5106888;28;19925;-68
2023/12/09 11:25:07;;;;;;;;;;;6.40;99.90;;;;;;5106630;28;20333;-69
2023/12/09 11:27:36;;;;;;;;;;;6.50;99.90;;;;;;5107051;28;19919;-68
2023/12/09 11:30:03;;;;;;;;;;;6.50;99.90;;;;;;5107654;27;20361;-68
2023/12/09 11:32:29;;;;;;;;;;;6.50;99.90;;;;;;5106697;28;19912;-68
2023/12/09 11:34:56;;;;;;;;;;;6.50;99.90;;;;;;5106341;28;19918;-68
2023/12/09 11:37:22;;;;;;;;;;;6.50;99.90;;;;;;5106576;28;19922;-69
2023/12/09 11:39:48;;;;;;;;;;;6.50;99.90;;;;;;5125145;27;19920;-68
2023/12/09 11:42:13;;;;;;;;;;;6.60;99.90;;;;;;5113624;27;20026;-69
2023/12/09 11:44:40;;;;;;;;;;;6.60;99.90;;;;;;5103320;28;19915;-68
2023/12/09 11:47:06;;;;;;;;;;;6.60;99.90;;;;;;5106678;28;19916;-69
2023/12/09 11:49:32;;;;;;;;;;;6.60;99.90;;;;;;5106457;27;19914;-69
2023/12/09 11:51:57;;;;;;;;;;;6.60;99.90;;;;;;5106345;28;19912;-69
2023/12/09 11:54:23;;;;;;;;;;;6.60;99.90;;;;;;5113279;27;19915;-68
2023/12/09 11:56:48;;;;;;;;;;;6.60;99.90;;;;;;5107877;27;19961;-69
2023/12/09 11:59:14;;;;;;;;;;;6.60;99.90;;;;;;5104918;28;19951;-69
2023/12/09 12:01:40;;;;;;;;;;;6.60;99.90;;;;;;5119634;27;20309;-69
2023/12/09 12:04:06;;;;;;;;;;;6.60;99.90;;;;;;5114786;27;19998;-68
2023/12/09 12:06:32;;;;;;;;;;;6.60;99.90;;;;;;5106009;27;20537;-69
2023/12/09 12:08:58;;;;;;;;;;;6.70;99.90;;;;;;5105982;28;20500;-68
2023/12/09 12:11:24;;;;;;;;;;;6.70;99.90;;;;;;5106357;28;20059;-68
2023/12/09 12:13:50;;;;;;;;;;;6.70;99.90;;;;;;5106293;27;20037;-68
2023/12/09 12:16:16;;;;;;;;;;;6.70;99.90;;;;;;5112516;27;20055;-69
2023/12/09 12:18:41;;;;;;;;;;;6.70;99.90;;;;;;5123591;27;20265;-69
2023/12/09 12:21:07;;;;;;;;;;;6.70;99.90;;;;;;5126721;27;19988;-69
2023/12/09 12:23:33;;;;;;;;;;;6.70;99.90;;;;;;5118267;27;19994;-69
2023/12/09 12:25:59;;;;;;;;;;;6.70;99.90;;;;;;5116075;27;19950;-69
2023/12/09 12:28:24;;;;;;;;;;;6.70;99.90;;;;;;5116256;27;19955;-69
2023/12/09 12:30:51;;;;;;;;;;;6.70;99.90;;;;;;5106729;27;19918;-68
2023/12/09 12:33:19;;;;;;;;;;;6.70;99.90;;;;;;5116111;27;19922;-68
2023/12/09 12:35:45;;;;;;;;;;;6.70;99.90;;;;;;5107470;27;19918;-69
2023/12/09 12:38:10;;;;;;;;;;;6.70;99.90;;;;;;5105833;28;19912;-69
2023/12/09 12:40:36;;;;;;;;;;;6.70;99.90;;;;;;5113960;27;19912;-69
2023/12/09 12:43:03;;;;;;;;;;;6.70;99.90;;;;;;5105640;27;19912;-69
2023/12/09 12:45:30;;;;;;;;;;;6.70;99.90;;;;;;5116086;27;19927;-69
2023/12/09 12:47:56;;;;;;;;;;;6.70;99.90;;;;;;5113255;27;20544;-69
2023/12/09 12:50:21;;;;;;;;;;;6.70;99.90;;;;;;5105266;27;19919;-69
2023/12/09 12:52:47;;;;;;;;;;;6.70;99.90;;;;;;5104897;28;20030;-69
2023/12/09 12:55:13;;;;;;;;;;;6.70;99.90;;;;;;5109514;27;19918;-69
2023/12/09 12:57:43;;;;;;;;;;;6.70;99.90;;;;;;5108090;27;20105;-69
2023/12/09 13:00:09;;;;;;;;;;;6.80;99.90;;;;;;5104757;28;19919;-68
2023/12/09 13:02:37;;;;;;;;;;;6.70;99.90;;;;;;5103465;28;19918;-69
2023/12/09 13:05:02;;;;;;;;;;;6.80;99.90;;;;;;5096943;28;19912;-68
2023/12/09 13:07:28;;;;;;;;;;;6.80;99.90;;;;;;5111970;27;19998;-68
2023/12/09 13:09:54;;;;;;;;;;;6.80;99.90;;;;;;5112819;27;19911;-69
2023/12/09 13:12:19;;;;;;;;;;;6.80;99.90;;;;;;5103620;28;19919;-69
2023/12/09 13:14:45;;;;;;;;;;;6.90;99.90;;;;;;5106000;27;19915;-69
2023/12/09 13:17:10;;;;;;;;;;;6.90;99.90;;;;;;5112183;27;20249;-69
2023/12/09 13:19:36;;;;;;;;;;;6.90;99.90;;;;;;5104776;28;20087;-68
2023/12/09 13:22:02;;;;;;;;;;;6.90;99.90;;;;;;5103334;28;19964;-68
2023/12/09 13:24:28;;;;;;;;;;;6.90;99.90;;;;;;5104893;28;20011;-69
2023/12/09 13:26:53;;;;;;;;;;;6.90;99.90;;;;;;5104627;27;20029;-68
2023/12/09 13:29:19;;;;;;;;;;;6.90;99.90;;;;;;5101273;28;19955;-69
2023/12/09 13:31:44;;;;;;;;;;;6.90;99.90;;;;;;5105789;27;19911;-69
2023/12/09 13:34:10;;;;;;;;;;;6.90;99.90;;;;;;5110499;27;19919;-69
2023/12/09 13:36:38;;;;;;;;;;;7.00;99.90;;;;;;5120692;27;22087;-68
2023/12/09 13:39:05;;;;;;;;;;;7.00;99.90;;;;;;5113028;27;19915;-69
2023/12/09 13:41:31;;;;;;;;;;;6.90;99.90;;;;;;5113148;27;19907;-68
2023/12/09 13:43:57;;;;;;;;;;;6.90;99.90;;;;;;5107200;27;20361;-69
2023/12/09 13:46:23;;;;;;;;;;;6.90;99.90;;;;;;5118613;27;19957;-68
2023/12/09 13:48:48;;;;;;;;;;;6.90;99.90;;;;;;5104302;27;19932;-69
2023/12/09 13:51:14;;;;;;;;;;;6.90;99.90;;;;;;5104414;28;20251;-68
2023/12/09 13:53:39;;;;;;;;;;;6.90;99.90;;;;;;5104293;28;19915;-69
2023/12/09 13:56:05;;;;;;;;;;;6.90;99.90;;;;;;5104212;27;20458;-68
2023/12/09 13:58:31;;;;;;;;;;;6.90;99.90;;;;;;5111549;27;19923;-68
2023/12/09 14:01:00;;;;;;;;;;;6.90;99.90;;;;;;5103661;27;19911;-68
2023/12/09 14:03:26;;;;;;;;;;;6.90;99.90;;;;;;5113082;27;19908;-68
2023/12/09 14:05:51;;;;;;;;;;;6.90;99.90;;;;;;5112063;27;20224;-69
2023/12/09 14:08:17;;;;;;;;;;;6.90;99.90;;;;;;5108911;28;20610;-69
2023/12/09 14:10:43;;;;;;;;;;;6.90;99.90;;;;;;5115643;27;19916;-69
2023/12/09 14:13:09;;;;;;;;;;;6.90;99.90;;;;;;5104806;28;20310;-69
2023/12/09 14:15:36;;;;;;;;;;;6.80;99.90;;;;;;5104608;28;19915;-68
2023/12/09 14:18:01;;;;;;;;;;;6.90;99.90;;;;;;5113334;27;19923;-68
2023/12/09 14:20:27;;;;;;;;;;;6.90;99.90;;;;;;5112051;28;19927;-68
2023/12/09 14:22:53;;;;;;;;;;;6.90;99.90;;;;;;5107380;27;20003;-68